sensor_id;sensor_type;location;lat;lon;timestamp;pressure;altitude;pressure_sealevel;temperature;humidity
35507;BME280;36461;52.018;21.036;2022-11-15T00:00:50;100745.11;;;7.02;85.16
35507;BME280;36461;52.018;21.036;2022-11-15T00:03:35;100741.22;;;7.04;85.11
35507;BME280;36461;52.018;21.036;2022-11-15T00:06:20;100733.45;;;7.05;85.14
35507;BME280;36461;52.018;21.036;2022-11-15T00:09:05;100724.87;;;7.02;84.83
35507;BME280;36461;52.018;21.036;2022-11-15T00:11:51;100729.66;;;6.98;84.90
35507;BME280;36461;52.018;21.036;2022-11-15T00:14:36;100730.14;;;6.96;84.90
35507;BME280;36461;52.018;21.036;2022-11-15T00:17:20;100731.00;;;6.95;84.98
35507;BME280;36461;52.018;21.036;2022-11-15T00:20:07;100724.14;;;6.92;85.12
35507;BME280;36461;52.018;21.036;2022-11-15T00:22:53;100716.40;;;6.92;85.07
35507;BME280;36461;52.018;21.036;2022-11-15T00:25:37;100716.83;;;6.93;85.26
35507;BME280;36461;52.018;21.036;2022-11-15T00:28:22;100706.10;;;6.91;85.15
35507;BME280;36461;52.018;21.036;2022-11-15T00:31:11;100704.41;;;6.88;85.05
35507;BME280;36461;52.018;21.036;2022-11-15T00:33:57;100700.18;;;6.82;85.18
35507;BME280;36461;52.018;21.036;2022-11-15T00:36:41;100699.75;;;6.81;85.29
35507;BME280;36461;52.018;21.036;2022-11-15T00:39:26;100697.13;;;6.84;85.45
35507;BME280;36461;52.018;21.036;2022-11-15T00:42:11;100697.08;;;6.87;85.55
35507;BME280;36461;52.018;21.036;2022-11-15T00:44:55;100693.99;;;6.94;85.74
35507;BME280;36461;52.018;21.036;2022-11-15T00:47:40;100680.67;;;6.95;85.38
35507;BME280;36461;52.018;21.036;2022-11-15T00:50:24;100680.70;;;6.93;85.47
35507;BME280;36461;52.018;21.036;2022-11-15T00:53:10;100677.66;;;6.94;85.44
35507;BME280;36461;52.018;21.036;2022-11-15T00:55:54;100674.17;;;6.98;85.50
35507;BME280;36461;52.018;21.036;2022-11-15T00:58:39;100670.33;;;6.96;85.45
35507;BME280;36461;52.018;21.036;2022-11-15T01:01:23;100668.63;;;6.94;85.41
35507;BME280;36461;52.018;21.036;2022-11-15T01:04:08;100665.62;;;6.93;85.39
35507;BME280;36461;52.018;21.036;2022-11-15T01:06:53;100660.06;;;6.90;85.42
35507;BME280;36461;52.018;21.036;2022-11-15T01:09:38;100655.33;;;6.91;85.60
35507;BME280;36461;52.018;21.036;2022-11-15T01:12:23;100655.75;;;6.92;85.66
35507;BME280;36461;52.018;21.036;2022-11-15T01:15:08;100639.81;;;6.93;85.66
35507;BME280;36461;52.018;21.036;2022-11-15T01:17:53;100629.92;;;6.94;85.71
35507;BME280;36461;52.018;21.036;2022-11-15T01:20:42;100625.23;;;6.92;85.71
35507;BME280;36461;52.018;21.036;2022-11-15T01:23:28;100625.23;;;6.92;85.65
35507;BME280;36461;52.018;21.036;2022-11-15T01:26:14;100618.33;;;6.92;85.72
35507;BME280;36461;52.018;21.036;2022-11-15T01:28:59;100610.61;;;6.91;85.60
35507;BME280;36461;52.018;21.036;2022-11-15T01:31:45;100610.63;;;6.87;85.75
35507;BME280;36461;52.018;21.036;2022-11-15T01:34:29;100608.03;;;6.91;85.96
35507;BME280;36461;52.018;21.036;2022-11-15T01:37:14;100605.85;;;6.93;85.95
35507;BME280;36461;52.018;21.036;2022-11-15T01:39:59;100601.95;;;6.95;85.99
35507;BME280;36461;52.018;21.036;2022-11-15T01:42:44;100602.82;;;6.94;85.90
35507;BME280;36461;52.018;21.036;2022-11-15T01:45:29;100598.14;;;6.92;85.97
35507;BME280;36461;52.018;21.036;2022-11-15T01:48:13;100597.29;;;6.89;85.95
35507;BME280;36461;52.018;21.036;2022-11-15T01:51:01;100592.59;;;6.86;85.95
35507;BME280;36461;52.018;21.036;2022-11-15T01:53:51;100596.52;;;6.83;85.88
35507;BME280;36461;52.018;21.036;2022-11-15T01:56:44;100594.83;;;6.80;85.92
35507;BME280;36461;52.018;21.036;2022-11-15T02:06:06;100590.67;;;6.68;86.35
35507;BME280;36461;52.018;21.036;2022-11-15T02:08:51;100587.23;;;6.69;86.44
35507;BME280;36461;52.018;21.036;2022-11-15T02:11:37;100587.20;;;6.71;86.52
35507;BME280;36461;52.018;21.036;2022-11-15T02:14:24;100583.76;;;6.72;86.43
35507;BME280;36461;52.018;21.036;2022-11-15T02:33:33;100557.19;;;6.65;86.79
35507;BME280;36461;52.018;21.036;2022-11-15T02:42:21;100546.56;;;6.55;87.07
35507;BME280;36461;52.018;21.036;2022-11-15T02:45:30;100549.97;;;6.59;87.27
35507;BME280;36461;52.018;21.036;2022-11-15T02:48:18;100547.34;;;6.62;87.24
35507;BME280;36461;52.018;21.036;2022-11-15T02:51:03;100549.08;;;6.61;87.20
35507;BME280;36461;52.018;21.036;2022-11-15T02:53:49;100545.66;;;6.61;87.13
35507;BME280;36461;52.018;21.036;2022-11-15T02:56:34;100539.65;;;6.59;87.17
35507;BME280;36461;52.018;21.036;2022-11-15T03:02:18;100535.41;;;6.54;87.08
35507;BME280;36461;52.018;21.036;2022-11-15T03:08:33;100528.63;;;6.46;87.06
35507;BME280;36461;52.018;21.036;2022-11-15T03:11:33;100525.28;;;6.41;87.23
35507;BME280;36461;52.018;21.036;2022-11-15T03:14:42;100523.97;;;6.42;87.38
35507;BME280;36461;52.018;21.036;2022-11-15T03:17:35;100525.19;;;6.47;87.48
35507;BME280;36461;52.018;21.036;2022-11-15T03:20:19;100520.50;;;6.45;87.48
35507;BME280;36461;52.018;21.036;2022-11-15T03:23:08;100511.08;;;6.42;87.39
35507;BME280;36461;52.018;21.036;2022-11-15T03:25:54;100500.34;;;6.41;87.42
35507;BME280;36461;52.018;21.036;2022-11-15T03:28:47;100498.63;;;6.40;87.61
35507;BME280;36461;52.018;21.036;2022-11-15T03:31:39;100495.19;;;6.41;87.57
35507;BME280;36461;52.018;21.036;2022-11-15T03:46:52;100489.23;;;6.36;87.73
35507;BME280;36461;52.018;21.036;2022-11-15T03:49:56;100481.49;;;6.36;87.58
35507;BME280;36461;52.018;21.036;2022-11-15T03:52:44;100476.34;;;6.36;87.97
35507;BME280;36461;52.018;21.036;2022-11-15T03:55:32;100476.71;;;6.40;87.92
35507;BME280;36461;52.018;21.036;2022-11-15T03:58:17;100466.39;;;6.40;87.92
35507;BME280;36461;52.018;21.036;2022-11-15T04:01:02;100461.29;;;6.37;87.81
35507;BME280;36461;52.018;21.036;2022-11-15T04:03:46;100459.16;;;6.35;87.76
35507;BME280;36461;52.018;21.036;2022-11-15T04:06:31;100460.05;;;6.32;87.81
35507;BME280;36461;52.018;21.036;2022-11-15T04:09:16;100460.44;;;6.35;87.99
35507;BME280;36461;52.018;21.036;2022-11-15T04:12:01;100453.53;;;6.38;88.02
35507;BME280;36461;52.018;21.036;2022-11-15T04:14:46;100445.77;;;6.40;88.05
35507;BME280;36461;52.018;21.036;2022-11-15T04:17:37;100450.03;;;6.43;88.08
35507;BME280;36461;52.018;21.036;2022-11-15T04:20:32;100443.53;;;6.47;88.08
35507;BME280;36461;52.018;21.036;2022-11-15T04:23:35;100428.91;;;6.48;87.87
35507;BME280;36461;52.018;21.036;2022-11-15T04:26:39;100440.55;;;6.43;87.58
35507;BME280;36461;52.018;21.036;2022-11-15T04:29:24;100436.38;;;6.36;87.61
35507;BME280;36461;52.018;21.036;2022-11-15T04:32:21;100420.50;;;6.33;87.90
35507;BME280;36461;52.018;21.036;2022-11-15T04:35:07;100426.53;;;6.34;87.89
35507;BME280;36461;52.018;21.036;2022-11-15T04:37:52;100424.87;;;6.28;87.80
35507;BME280;36461;52.018;21.036;2022-11-15T04:40:37;100427.03;;;6.29;87.91
35507;BME280;36461;52.018;21.036;2022-11-15T04:43:23;100424.00;;;6.29;88.20
35507;BME280;36461;52.018;21.036;2022-11-15T04:46:07;100420.09;;;6.34;88.13
35507;BME280;36461;52.018;21.036;2022-11-15T04:48:53;100424.33;;;6.38;88.21
35507;BME280;36461;52.018;21.036;2022-11-15T04:51:38;100415.70;;;6.41;88.06
35507;BME280;36461;52.018;21.036;2022-11-15T04:54:23;100410.95;;;6.40;87.95
35507;BME280;36461;52.018;21.036;2022-11-15T04:57:08;100408.83;;;6.40;87.95
35507;BME280;36461;52.018;21.036;2022-11-15T04:59:53;100413.09;;;6.42;88.05
35507;BME280;36461;52.018;21.036;2022-11-15T05:02:37;100415.64;;;6.44;88.09
35507;BME280;36461;52.018;21.036;2022-11-15T05:05:42;100411.32;;;6.44;87.96
35507;BME280;36461;52.018;21.036;2022-11-15T05:08:27;100415.64;;;6.44;87.94
35507;BME280;36461;52.018;21.036;2022-11-15T05:11:12;100406.70;;;6.37;87.76
35507;BME280;36461;52.018;21.036;2022-11-15T05:13:57;100409.77;;;6.34;87.74
35507;BME280;36461;52.018;21.036;2022-11-15T05:16:42;100416.74;;;6.27;87.80
35507;BME280;36461;52.018;21.036;2022-11-15T05:19:27;100410.77;;;6.24;87.83
35507;BME280;36461;52.018;21.036;2022-11-15T05:22:12;100412.48;;;6.25;87.98
35507;BME280;36461;52.018;21.036;2022-11-15T05:24:57;100417.27;;;6.20;87.88
35507;BME280;36461;52.018;21.036;2022-11-15T05:27:41;100402.22;;;6.20;88.16
35507;BME280;36461;52.018;21.036;2022-11-15T05:30:26;100404.77;;;6.21;88.23
35507;BME280;36461;52.018;21.036;2022-11-15T05:33:11;100406.45;;;6.24;88.17
35507;BME280;36461;52.018;21.036;2022-11-15T05:36:00;100402.56;;;6.27;88.18
35507;BME280;36461;52.018;21.036;2022-11-15T05:38:49;100397.41;;;6.27;88.16
35507;BME280;36461;52.018;21.036;2022-11-15T05:41:41;100403.41;;;6.28;88.08
35507;BME280;36461;52.018;21.036;2022-11-15T05:44:28;100399.98;;;6.26;88.09
35507;BME280;36461;52.018;21.036;2022-11-15T05:47:21;100397.85;;;6.25;88.21
35507;BME280;36461;52.018;21.036;2022-11-15T05:50:11;100398.69;;;6.26;88.19
35507;BME280;36461;52.018;21.036;2022-11-15T05:52:58;100400.90;;;6.21;88.20
35507;BME280;36461;52.018;21.036;2022-11-15T05:55:44;100397.06;;;6.20;88.28
35507;BME280;36461;52.018;21.036;2022-11-15T05:58:32;100396.64;;;6.20;88.35
35507;BME280;36461;52.018;21.036;2022-11-15T06:01:17;100393.56;;;6.24;88.44
35507;BME280;36461;52.018;21.036;2022-11-15T06:04:03;100397.43;;;6.24;88.52
35507;BME280;36461;52.018;21.036;2022-11-15T06:06:47;100392.25;;;6.26;88.61
35507;BME280;36461;52.018;21.036;2022-11-15T06:09:33;100391.38;;;6.27;88.54
35507;BME280;36461;52.018;21.036;2022-11-15T06:12:18;100402.11;;;6.28;88.60
35507;BME280;36461;52.018;21.036;2022-11-15T06:15:03;100405.06;;;6.32;88.54
35507;BME280;36461;52.018;21.036;2022-11-15T06:17:49;100399.06;;;6.30;88.39
35507;BME280;36461;52.018;21.036;2022-11-15T06:20:34;100404.22;;;6.31;88.65
35507;BME280;36461;52.018;21.036;2022-11-15T06:23:19;100402.05;;;6.34;88.44
35507;BME280;36461;52.018;21.036;2022-11-15T06:26:04;100409.38;;;6.30;88.33
35507;BME280;36461;52.018;21.036;2022-11-15T06:28:48;100409.80;;;6.31;88.50
35507;BME280;36461;52.018;21.036;2022-11-15T06:31:34;100408.93;;;6.32;88.46
35507;BME280;36461;52.018;21.036;2022-11-15T06:34:18;100407.64;;;6.32;88.32
35507;BME280;36461;52.018;21.036;2022-11-15T06:37:03;100412.77;;;6.33;88.25
35507;BME280;36461;52.018;21.036;2022-11-15T06:39:48;100405.51;;;6.30;88.08
35507;BME280;36461;52.018;21.036;2022-11-15T06:42:33;100402.59;;;6.24;88.00
35507;BME280;36461;52.018;21.036;2022-11-15T06:45:18;100407.34;;;6.21;88.01
35507;BME280;36461;52.018;21.036;2022-11-15T06:48:02;100412.48;;;6.25;88.22
35507;BME280;36461;52.018;21.036;2022-11-15T06:50:56;100415.43;;;6.29;88.18
35507;BME280;36461;52.018;21.036;2022-11-15T06:53:43;100418.92;;;6.25;87.86
35507;BME280;36461;52.018;21.036;2022-11-15T06:56:28;100417.21;;;6.24;87.99
35507;BME280;36461;52.018;21.036;2022-11-15T06:59:14;100413.30;;;6.27;88.00
35507;BME280;36461;52.018;21.036;2022-11-15T07:02:00;100418.80;;;6.34;88.17
35507;BME280;36461;52.018;21.036;2022-11-15T07:04:45;100411.02;;;6.37;87.73
35507;BME280;36461;52.018;21.036;2022-11-15T07:07:30;100404.61;;;6.32;87.77
35507;BME280;36461;52.018;21.036;2022-11-15T07:10:15;100416.19;;;6.35;87.77
35507;BME280;36461;52.018;21.036;2022-11-15T07:13:00;100417.03;;;6.36;87.60
35507;BME280;36461;52.018;21.036;2022-11-15T07:15:45;100408.80;;;6.41;87.87
35507;BME280;36461;52.018;21.036;2022-11-15T07:18:29;100412.72;;;6.38;87.63
35507;BME280;36461;52.018;21.036;2022-11-15T07:21:14;100405.72;;;6.46;87.84
35507;BME280;36461;52.018;21.036;2022-11-15T07:23:59;100408.66;;;6.50;87.79
35507;BME280;36461;52.018;21.036;2022-11-15T07:26:43;100418.92;;;6.53;87.70
35507;BME280;36461;52.018;21.036;2022-11-15T07:29:28;100413.71;;;6.57;87.61
35507;BME280;36461;52.018;21.036;2022-11-15T07:32:12;100412.42;;;6.58;87.56
35507;BME280;36461;52.018;21.036;2022-11-15T07:34:57;100414.55;;;6.59;87.21
35507;BME280;36461;52.018;21.036;2022-11-15T07:37:41;100409.79;;;6.61;87.44
35507;BME280;36461;52.018;21.036;2022-11-15T07:40:28;100408.53;;;6.60;87.13
35507;BME280;36461;52.018;21.036;2022-11-15T07:43:14;100413.66;;;6.61;87.11
35507;BME280;36461;52.018;21.036;2022-11-15T07:46:06;100411.92;;;6.62;86.94
35507;BME280;36461;52.018;21.036;2022-11-15T07:48:53;100408.39;;;6.69;86.91
35507;BME280;36461;52.018;21.036;2022-11-15T07:51:38;100411.78;;;6.71;86.82
35507;BME280;36461;52.018;21.036;2022-11-15T07:54:23;100415.20;;;6.73;86.71
35507;BME280;36461;52.018;21.036;2022-11-15T07:57:07;100411.27;;;6.76;86.57
35507;BME280;36461;52.018;21.036;2022-11-15T07:59:53;100399.22;;;6.78;86.44
35507;BME280;36461;52.018;21.036;2022-11-15T08:02:38;100392.64;;;6.84;86.42
35507;BME280;36461;52.018;21.036;2022-11-15T08:05:23;100392.58;;;6.87;86.28
35507;BME280;36461;52.018;21.036;2022-11-15T08:08:10;100382.14;;;6.95;86.31
35507;BME280;36461;52.018;21.036;2022-11-15T08:10:57;100378.59;;;7.01;86.15
35507;BME280;36461;52.018;21.036;2022-11-15T08:13:42;100384.14;;;7.03;85.91
35507;BME280;36461;52.018;21.036;2022-11-15T08:16:27;100384.14;;;7.05;85.78
35507;BME280;36461;52.018;21.036;2022-11-15T08:19:12;100377.17;;;7.09;85.68
35507;BME280;36461;52.018;21.036;2022-11-15T08:21:56;100381.46;;;7.10;85.54
35507;BME280;36461;52.018;21.036;2022-11-15T08:24:41;100368.45;;;7.16;85.51
35507;BME280;36461;52.018;21.036;2022-11-15T08:27:26;100360.19;;;7.19;85.45
35507;BME280;36461;52.018;21.036;2022-11-15T08:30:11;100361.45;;;7.22;85.38
35507;BME280;36461;52.018;21.036;2022-11-15T08:32:58;100358.77;;;7.27;85.15
35507;BME280;36461;52.018;21.036;2022-11-15T08:35:43;100357.83;;;7.31;85.30
35507;BME280;36461;52.018;21.036;2022-11-15T08:38:29;100349.97;;;7.37;85.07
35507;BME280;36461;52.018;21.036;2022-11-15T08:41:30;100352.59;;;7.36;84.92
35507;BME280;36461;52.018;21.036;2022-11-15T08:44:20;100349.97;;;7.37;84.74
35507;BME280;36461;52.018;21.036;2022-11-15T08:47:05;100348.61;;;7.41;84.75
35507;BME280;36461;52.018;21.036;2022-11-15T08:49:50;100349.86;;;7.42;84.69
35507;BME280;36461;52.018;21.036;2022-11-15T08:52:35;100354.16;;;7.43;84.39
35507;BME280;36461;52.018;21.036;2022-11-15T08:55:20;100355.06;;;7.41;84.37
35507;BME280;36461;52.018;21.036;2022-11-15T08:58:05;100351.30;;;7.36;84.28
35507;BME280;36461;52.018;21.036;2022-11-15T09:00:50;100348.95;;;7.45;84.62
35507;BME280;36461;52.018;21.036;2022-11-15T09:03:35;100344.97;;;7.51;84.37
35507;BME280;36461;52.018;21.036;2022-11-15T09:06:19;100342.20;;;7.59;84.55
35507;BME280;36461;52.018;21.036;2022-11-15T09:09:04;100338.71;;;7.63;84.25
35507;BME280;36461;52.018;21.036;2022-11-15T09:11:48;100339.05;;;7.65;84.37
35507;BME280;36461;52.018;21.036;2022-11-15T09:14:35;100335.56;;;7.68;84.05
35507;BME280;36461;52.018;21.036;2022-11-15T09:17:20;100335.10;;;7.70;84.06
35507;BME280;36461;52.018;21.036;2022-11-15T09:20:06;100328.56;;;7.73;83.75
35507;BME280;36461;52.018;21.036;2022-11-15T09:22:52;100336.70;;;7.76;83.92
35507;BME280;36461;52.018;21.036;2022-11-15T09:25:37;100328.91;;;7.77;83.83
35507;BME280;36461;52.018;21.036;2022-11-15T09:28:21;100319.78;;;7.82;83.86
35507;BME280;36461;52.018;21.036;2022-11-15T09:31:06;100322.21;;;7.88;83.57
35507;BME280;36461;52.018;21.036;2022-11-15T09:33:51;100314.80;;;7.92;83.71
35507;BME280;36461;52.018;21.036;2022-11-15T09:36:36;100309.95;;;7.98;83.58
35507;BME280;36461;52.018;21.036;2022-11-15T09:39:21;100311.55;;;8.03;83.13
35507;BME280;36461;52.018;21.036;2022-11-15T09:45:23;100304.75;;;8.17;83.45
35507;BME280;36461;52.018;21.036;2022-11-15T09:51:00;100294.27;;;8.23;82.88
35507;BME280;36461;52.018;21.036;2022-11-15T09:53:51;100287.31;;;8.26;82.76
35507;BME280;36461;52.018;21.036;2022-11-15T09:56:21;100285.88;;;8.32;82.60
35507;BME280;36461;52.018;21.036;2022-11-15T10:04:49;100272.86;;;8.35;82.22
35507;BME280;36461;52.018;21.036;2022-11-15T10:10:07;100263.94;;;8.30;82.34
35507;BME280;36461;52.018;21.036;2022-11-15T10:12:46;100257.34;;;8.35;82.09
35507;BME280;36461;52.018;21.036;2022-11-15T10:15:14;100250.83;;;8.36;81.84
35507;BME280;36461;52.018;21.036;2022-11-15T10:23:19;100247.88;;;8.34;81.73
35507;BME280;36461;52.018;21.036;2022-11-15T10:25:48;100254.75;;;8.35;81.51
35507;BME280;36461;52.018;21.036;2022-11-15T10:28:30;100250.50;;;8.32;81.69
35507;BME280;36461;52.018;21.036;2022-11-15T10:30:59;100246.25;;;8.31;81.58
35507;BME280;36461;52.018;21.036;2022-11-15T10:33:34;100244.36;;;8.36;81.79
35507;BME280;36461;52.018;21.036;2022-11-15T10:36:14;100243.38;;;8.42;81.59
35507;BME280;36461;52.018;21.036;2022-11-15T10:46:47;100246.70;;;8.49;81.50
35507;BME280;36461;52.018;21.036;2022-11-15T10:49:21;100248.00;;;8.47;81.37
35507;BME280;36461;52.018;21.036;2022-11-15T10:57:38;100234.69;;;8.46;81.54
35507;BME280;36461;52.018;21.036;2022-11-15T11:03:01;100231.76;;;8.40;81.38
35507;BME280;36461;52.018;21.036;2022-11-15T11:05:37;100227.13;;;8.37;81.22
35507;BME280;36461;52.018;21.036;2022-11-15T11:10:51;100207.69;;;8.38;81.39
35507;BME280;36461;52.018;21.036;2022-11-15T11:22:16;100200.51;;;8.50;81.38
35507;BME280;36461;52.018;21.036;2022-11-15T11:34:00;100201.33;;;8.52;81.41
35507;BME280;36461;52.018;21.036;2022-11-15T11:36:58;100196.06;;;8.55;81.53
35507;BME280;36461;52.018;21.036;2022-11-15T11:39:50;100186.64;;;8.52;81.42
35507;BME280;36461;52.018;21.036;2022-11-15T11:42:59;100181.73;;;8.60;81.49
35507;BME280;36461;52.018;21.036;2022-11-15T11:45:47;100179.93;;;8.62;81.23
35507;BME280;36461;52.018;21.036;2022-11-15T11:51:17;100176.55;;;8.60;81.27
35507;BME280;36461;52.018;21.036;2022-11-15T11:54:00;100168.99;;;8.52;81.24
35507;BME280;36461;52.018;21.036;2022-11-15T11:56:31;100163.00;;;8.50;81.22
35507;BME280;36461;52.018;21.036;2022-11-15T12:02:31;100155.60;;;8.52;81.33
35507;BME280;36461;52.018;21.036;2022-11-15T12:06:04;100152.18;;;8.52;81.30
35507;BME280;36461;52.018;21.036;2022-11-15T12:07:52;100147.94;;;8.49;81.29
35507;BME280;36461;52.018;21.036;2022-11-15T12:10:28;100149.86;;;8.58;81.64
35507;BME280;36461;52.018;21.036;2022-11-15T12:13:15;100145.87;;;8.62;81.63
35507;BME280;36461;52.018;21.036;2022-11-15T12:15:53;100143.14;;;8.67;81.51
35507;BME280;36461;52.018;21.036;2022-11-15T12:18:21;100140.45;;;8.70;81.51
35507;BME280;36461;52.018;21.036;2022-11-15T12:20:56;100142.42;;;8.77;81.49
35507;BME280;36461;52.018;21.036;2022-11-15T12:23:28;100140.29;;;8.76;81.44
35507;BME280;36461;52.018;21.036;2022-11-15T12:26:05;100139.20;;;8.83;81.55
35507;BME280;36461;52.018;21.036;2022-11-15T12:28:53;100133.30;;;8.80;81.30
35507;BME280;36461;52.018;21.036;2022-11-15T12:36:51;100127.56;;;8.83;81.30
35507;BME280;36461;52.018;21.036;2022-11-15T12:39:18;100130.20;;;8.82;81.32
35507;BME280;36461;52.018;21.036;2022-11-15T12:52:10;100116.84;;;8.81;81.17
35507;BME280;36461;52.018;21.036;2022-11-15T13:00:05;100107.44;;;8.63;81.29
35507;BME280;36461;52.018;21.036;2022-11-15T13:02:43;100099.98;;;8.67;81.42
35507;BME280;36461;52.018;21.036;2022-11-15T13:10:31;100101.92;;;8.76;81.66
35507;BME280;36461;52.018;21.036;2022-11-15T13:13:01;100084.34;;;8.57;81.19
35507;BME280;36461;52.018;21.036;2022-11-15T13:20:58;100095.67;;;8.68;81.28
35507;BME280;36461;52.018;21.036;2022-11-15T13:23:24;100097.08;;;8.63;81.25
35507;BME280;36461;52.018;21.036;2022-11-15T13:26:11;100101.73;;;8.67;81.50
35507;BME280;36461;52.018;21.036;2022-11-15T13:33:52;100092.20;;;8.69;81.49
35507;BME280;36461;52.018;21.036;2022-11-15T13:36:33;100086.52;;;8.71;81.63
35507;BME280;36461;52.018;21.036;2022-11-15T13:39:05;100087.91;;;8.68;81.27
35507;BME280;36461;52.018;21.036;2022-11-15T13:41:37;100075.50;;;8.64;81.49
35507;BME280;36461;52.018;21.036;2022-11-15T13:44:17;100079.28;;;8.67;81.53
35507;BME280;36461;52.018;21.036;2022-11-15T13:46:38;100076.27;;;8.68;81.59
35507;BME280;36461;52.018;21.036;2022-11-15T13:49:09;100071.45;;;8.70;81.60
35507;BME280;36461;52.018;21.036;2022-11-15T13:59:54;100064.69;;;8.65;81.33
35507;BME280;36461;52.018;21.036;2022-11-15T14:02:18;100061.36;;;8.61;81.35
35507;BME280;36461;52.018;21.036;2022-11-15T14:04:51;100055.83;;;8.59;81.28
35507;BME280;36461;52.018;21.036;2022-11-15T14:07:25;100052.84;;;8.58;81.35
35507;BME280;36461;52.018;21.036;2022-11-15T14:09:53;100061.48;;;8.56;81.51
35507;BME280;36461;52.018;21.036;2022-11-15T14:12:28;100055.00;;;8.58;81.62
35507;BME280;36461;52.018;21.036;2022-11-15T14:14:59;100057.96;;;8.59;81.54
35507;BME280;36461;52.018;21.036;2022-11-15T14:17:38;100054.33;;;8.51;81.51
35507;BME280;36461;52.018;21.036;2022-11-15T14:23:05;100063.70;;;8.55;81.76
35507;BME280;36461;52.018;21.036;2022-11-15T14:25:34;100061.11;;;8.55;81.71
35507;BME280;36461;52.018;21.036;2022-11-15T14:30:56;100055.21;;;8.50;81.41
35507;BME280;36461;52.018;21.036;2022-11-15T14:33:29;100051.47;;;8.44;81.60
35507;BME280;36461;52.018;21.036;2022-11-15T14:36:13;100051.56;;;8.41;81.59
35507;BME280;36461;52.018;21.036;2022-11-15T14:38:44;100048.30;;;8.34;81.63
35507;BME280;36461;52.018;21.036;2022-11-15T14:41:21;100050.53;;;8.32;81.73
35507;BME280;36461;52.018;21.036;2022-11-15T14:43:49;100047.27;;;8.25;81.81
35507;BME280;36461;52.018;21.036;2022-11-15T14:46:16;100050.73;;;8.24;81.94
35507;BME280;36461;52.018;21.036;2022-11-15T14:48:43;100043.91;;;8.21;82.06
35507;BME280;36461;52.018;21.036;2022-11-15T14:51:15;100043.95;;;8.20;82.10
35507;BME280;36461;52.018;21.036;2022-11-15T14:53:43;100045.44;;;8.14;82.00
35507;BME280;36461;52.018;21.036;2022-11-15T14:56:11;100049.79;;;8.12;82.23
35507;BME280;36461;52.018;21.036;2022-11-15T14:58:38;100045.39;;;8.15;82.38
35507;BME280;36461;52.018;21.036;2022-11-15T15:01:17;100047.93;;;8.17;82.39
35507;BME280;36461;52.018;21.036;2022-11-15T15:03:43;100044.47;;;8.18;82.53
35507;BME280;36461;52.018;21.036;2022-11-15T15:06:09;100044.05;;;8.17;82.29
35507;BME280;36461;52.018;21.036;2022-11-15T15:08:39;100036.34;;;8.15;82.39
35507;BME280;36461;52.018;21.036;2022-11-15T15:11:13;100032.53;;;8.12;82.42
35507;BME280;36461;52.018;21.036;2022-11-15T15:13:41;100042.44;;;8.13;82.53
35507;BME280;36461;52.018;21.036;2022-11-15T15:16:07;100035.62;;;8.10;82.44
35507;BME280;36461;52.018;21.036;2022-11-15T15:18:34;100039.13;;;8.08;82.42
35507;BME280;36461;52.018;21.036;2022-11-15T15:21:00;100038.36;;;8.04;82.44
35507;BME280;36461;52.018;21.036;2022-11-15T15:23:33;100039.28;;;8.01;82.48
35507;BME280;36461;52.018;21.036;2022-11-15T15:26:01;100033.44;;;7.95;82.51
35507;BME280;36461;52.018;21.036;2022-11-15T15:28:27;100032.23;;;7.92;82.63
35507;BME280;36461;52.018;21.036;2022-11-15T15:30:53;100027.54;;;7.89;82.73
35507;BME280;36461;52.018;21.036;2022-11-15T15:33:20;100031.03;;;7.88;82.72
35507;BME280;36461;52.018;21.036;2022-11-15T15:35:46;100028.19;;;7.81;82.78
35507;BME280;36461;52.018;21.036;2022-11-15T15:38:12;100026.90;;;7.81;82.83
35507;BME280;36461;52.018;21.036;2022-11-15T15:40:39;100019.47;;;7.85;83.16
35507;BME280;36461;52.018;21.036;2022-11-15T15:43:06;100022.38;;;7.89;83.09
35507;BME280;36461;52.018;21.036;2022-11-15T15:45:37;100025.41;;;7.89;83.10
35507;BME280;36461;52.018;21.036;2022-11-15T15:48:07;100024.89;;;7.93;83.13
35507;BME280;36461;52.018;21.036;2022-11-15T15:50:36;100023.60;;;7.93;83.15
35507;BME280;36461;52.018;21.036;2022-11-15T15:53:03;100022.72;;;7.94;83.14
35507;BME280;36461;52.018;21.036;2022-11-15T15:55:30;100020.56;;;7.93;82.97
35507;BME280;36461;52.018;21.036;2022-11-15T15:57:57;100016.83;;;7.88;82.86
35507;BME280;36461;52.018;21.036;2022-11-15T16:00:25;100019.83;;;7.88;83.03
35507;BME280;36461;52.018;21.036;2022-11-15T16:02:52;100016.41;;;7.87;83.02
35507;BME280;36461;52.018;21.036;2022-11-15T16:05:20;100013.33;;;7.89;83.24
35507;BME280;36461;52.018;21.036;2022-11-15T16:07:47;100009.38;;;7.93;83.33
35507;BME280;36461;52.018;21.036;2022-11-15T16:10:18;100009.75;;;7.95;83.23
35507;BME280;36461;52.018;21.036;2022-11-15T16:12:51;100002.92;;;7.93;83.10
35507;BME280;36461;52.018;21.036;2022-11-15T16:15:20;100002.20;;;7.87;82.92
35507;BME280;36461;52.018;21.036;2022-11-15T16:17:52;100002.66;;;7.87;82.98
35507;BME280;36461;52.018;21.036;2022-11-15T16:22:58;100002.67;;;7.85;82.99
35507;BME280;36461;52.018;21.036;2022-11-15T16:25:25;99996.25;;;7.84;82.92
35507;BME280;36461;52.018;21.036;2022-11-15T16:27:52;100004.05;;;7.82;82.97
35507;BME280;36461;52.018;21.036;2022-11-15T16:30:21;100011.44;;;7.80;82.95
35507;BME280;36461;52.018;21.036;2022-11-15T16:32:49;100010.66;;;7.78;82.97
35507;BME280;36461;52.018;21.036;2022-11-15T16:35:16;100010.29;;;7.75;82.79
35507;BME280;36461;52.018;21.036;2022-11-15T16:37:43;100013.06;;;7.67;82.78
35507;BME280;36461;52.018;21.036;2022-11-15T16:40:24;100011.82;;;7.66;82.98
35507;BME280;36461;52.018;21.036;2022-11-15T16:42:53;100015.28;;;7.65;83.06
35507;BME280;36461;52.018;21.036;2022-11-15T16:45:21;100017.45;;;7.64;82.97
35507;BME280;36461;52.018;21.036;2022-11-15T16:47:48;100010.27;;;7.59;83.01